Mayo, Maryland
Current Conditions -  °F | °C
As of 12:54 PM on Saturday 20 Dec 2014 (Local Time) from KNAK Reporting Station
Clear Clear  
Wind Chill: 38°   Ceiling: Unl
Heat Index: 38°   Visibility: 10mi
Dew Point: 23°   Wind: 0mph
Humidity: 55%   Direction: NA
Pressure: 30.28"   Gusts: NA
Location:  38.89°N, 76.51°W
Report Text: KNAK 201754Z AUTO 00000KT 10SM CLR 03/M05 A3028 RMK AO2 SLP254 T00331050 10033 21011 58020
Loading
Personal Weather Stations






























Interactive Weather Map New forecast layout! Learn more

10-Day Weather Forecast

Advertisements
Track Severe Weather on mobile